Time;durP1;ratioP1;P1;durP2;ratioP2;P2;SDS_P1;SDS_P2;PMS_P1;PMS_P2;Temp;Humidity;BMP_temperature;BMP_pressure;BME280_temperature;BME280_humidity;BME280_pressure;Samples;Min_cycle;Max_cycle;Signal;HPM_P1;HPM_P2
2024/01/18 00:00:36;;;;;;;1.60;1.50;;;;;;;;;;4760831;30;20254;-96
2024/01/18 00:03:02;;;;;;;4.22;1.60;;;;;;;;;;4762362;30;20232;-95
2024/01/18 00:05:32;;;;;;;4.68;1.40;;;;;;;;;;4753531;30;20090;-96
2024/01/18 00:07:58;;;;;;;2.47;1.60;;;;;;;;;;4743373;30;20567;-95
2024/01/18 00:10:28;;;;;;;2.42;1.20;;;;;;;;;;4748498;30;20070;-96
2024/01/18 00:12:57;;;;;;;2.47;1.15;;;;;;;;;;4746316;30;20051;-95
2024/01/18 00:15:28;;;;;;;3.97;1.30;;;;;;;;;;4755849;30;20139;-93
2024/01/18 00:17:55;;;;;;;2.92;1.58;;;;;;;;;;4755989;30;20109;-95
2024/01/18 00:20:27;;;;;;;1.10;0.98;;;;;;;;;;4742049;30;20142;-96
2024/01/18 00:22:53;;;;;;;6.15;2.08;;;;;;;;;;4741770;30;20063;-96
2024/01/18 00:25:20;;;;;;;1.73;1.35;;;;;;;;;;4742744;30;20142;-94
2024/01/18 00:27:46;;;;;;;5.50;1.55;;;;;;;;;;4742665;30;20426;-96
2024/01/18 00:30:22;;;;;;;3.63;1.48;;;;;;;;;;4743753;30;20055;-95
2024/01/18 00:32:48;;;;;;;2.53;1.33;;;;;;;;;;4744201;30;20055;-96
2024/01/18 00:35:17;;;;;;;1.70;1.20;;;;;;;;;;4746165;30;20094;-95
2024/01/18 00:37:44;;;;;;;1.85;1.15;;;;;;;;;;4745543;30;20051;-96
2024/01/18 00:40:14;;;;;;;1.92;1.17;;;;;;;;;;4756577;30;20043;-96
2024/01/18 00:42:40;;;;;;;4.65;1.60;;;;;;;;;;4764096;30;20424;-96
2024/01/18 00:45:09;;;;;;;2.75;1.23;;;;;;;;;;4764090;30;20405;-96
2024/01/18 00:47:38;;;;;;;2.83;1.20;;;;;;;;;;4760186;30;20051;-95
2024/01/18 00:50:14;;;;;;;;;;;;;;;;;;;;;
2024/01/18 00:52:49;;;;;;;5.55;1.20;;;;;;;;;;4762503;30;20052;-95
2024/01/18 00:55:18;;;;;;;2.47;1.55;;;;;;;;;;4747194;30;20056;-96
2024/01/18 00:57:52;;;;;;;1.30;1.20;;;;;;;;;;4775637;30;20113;-96
2024/01/18 01:00:21;;;;;;;4.47;1.92;;;;;;;;;;4776672;30;20051;-96
2024/01/18 01:02:51;;;;;;;8.80;1.80;;;;;;;;;;4769651;30;20055;-94
2024/01/18 01:05:20;;;;;;;2.67;1.65;;;;;;;;;;4761403;30;20058;-94
2024/01/18 01:07:46;;;;;;;2.70;1.35;;;;;;;;;;4746874;30;20080;-94
2024/01/18 01:10:20;;;;;;;2.63;1.20;;;;;;;;;;4746637;30;20058;-92
2024/01/18 01:12:55;;;;;;;2.45;1.42;;;;;;;;;;4755278;30;20056;-94
2024/01/18 01:15:23;;;;;;;3.42;1.70;;;;;;;;;;4746133;30;20070;-95
2024/01/18 01:17:58;;;;;;;2.45;1.55;;;;;;;;;;4762099;30;20056;-91
2024/01/18 01:20:27;;;;;;;10.60;1.70;;;;;;;;;;4731210;30;20491;-94
2024/01/18 01:22:56;;;;;;;2.88;1.27;;;;;;;;;;4731491;30;20060;-94
2024/01/18 01:25:27;;;;;;;7.35;1.55;;;;;;;;;;4758503;30;20099;-92
2024/01/18 01:27:56;;;;;;;4.00;0.98;;;;;;;;;;4743620;30;20361;-94
2024/01/18 01:30:52;;;;;;;1.63;1.00;;;;;;;;;;4743240;30;20057;-94
2024/01/18 01:33:28;;;;;;;4.10;1.50;;;;;;;;;;4740704;30;20140;-94
2024/01/18 01:35:56;;;;;;;1.73;1.20;;;;;;;;;;4746310;30;20063;-95
2024/01/18 01:38:25;;;;;;;2.60;1.25;;;;;;;;;;4744289;30;20059;-95
2024/01/18 01:41:23;;;;;;;2.42;1.58;;;;;;;;;;4770263;30;20051;-94
2024/01/18 01:44:00;;;;;;;3.22;1.90;;;;;;;;;;4744960;30;20585;-95
2024/01/18 01:46:29;;;;;;;5.65;2.33;;;;;;;;;;4744527;30;20128;-94
2024/01/18 01:49:08;;;;;;;4.68;1.52;;;;;;;;;;4758332;30;20063;-93
2024/01/18 01:54:31;;;;;;;1.27;1.05;;;;;;;;;;4761665;30;20539;-96
2024/01/18 01:57:05;;;;;;;4.07;2.10;;;;;;;;;;4774298;30;20048;-95
2024/01/18 01:59:34;;;;;;;6.80;1.88;;;;;;;;;;4740362;30;20052;-96
2024/01/18 02:02:14;;;;;;;2.90;1.23;;;;;;;;;;4760041;30;20052;-95
2024/01/18 02:04:43;;;;;;;7.45;1.60;;;;;;;;;;4758572;30;20100;-95
2024/01/18 02:07:09;;;;;;;8.15;1.52;;;;;;;;;;4759163;30;20524;-96
2024/01/18 02:09:47;;;;;;;7.43;1.65;;;;;;;;;;4753938;30;20142;-95
2024/01/18 02:12:17;;;;;;;1.40;1.30;;;;;;;;;;4753140;30;20059;-95
2024/01/18 02:14:53;;;;;;;6.55;1.50;;;;;;;;;;4761271;30;20051;-95
2024/01/18 02:17:27;;;;;;;3.15;1.38;;;;;;;;;;4760207;30;20379;-95
2024/01/18 02:20:04;;;;;;;2.47;1.40;;;;;;;;;;4749942;30;20059;-96
2024/01/18 02:22:44;;;;;;;4.18;1.33;;;;;;;;;;4744170;30;20047;-96
2024/01/18 02:25:28;;;;;;;4.10;1.65;;;;;;;;;;4742929;30;20056;-96
2024/01/18 02:27:55;;;;;;;3.37;1.53;;;;;;;;;;4759778;30;20051;-96
2024/01/18 02:30:27;;;;;;;6.80;1.23;;;;;;;;;;4760621;30;20063;-96
2024/01/18 02:32:56;;;;;;;3.22;1.17;;;;;;;;;;4750215;30;20124;-96
2024/01/18 02:35:25;;;;;;;7.25;1.67;;;;;;;;;;4744183;30;20055;-96
2024/01/18 02:37:52;;;;;;;4.53;1.25;;;;;;;;;;4743308;30;20056;-96
2024/01/18 02:40:27;;;;;;;4.35;1.60;;;;;;;;;;4756154;30;20494;-96
2024/01/18 02:43:06;;;;;;;1.55;1.45;;;;;;;;;;4760326;30;20055;-96
2024/01/18 02:45:33;;;;;;;2.10;1.17;;;;;;;;;;4760628;30;20086;-96
2024/01/18 02:47:59;;;;;;;2.13;1.35;;;;;;;;;;4759666;30;20058;-95
2024/01/18 02:50:25;;;;;;;3.72;1.25;;;;;;;;;;4759181;30;20066;-95
2024/01/18 02:52:54;;;;;;;2.00;1.45;;;;;;;;;;4757825;30;20053;-95
2024/01/18 02:55:29;;;;;;;5.05;2.78;;;;;;;;;;4767518;30;20059;-96
2024/01/18 02:57:58;;;;;;;2.13;1.38;;;;;;;;;;4759724;30;20505;-96
2024/01/18 03:00:34;;;;;;;1.65;1.17;;;;;;;;;;4747118;30;20052;-96
2024/01/18 03:03:03;;;;;;;7.13;2.40;;;;;;;;;;4758310;30;20055;-96
2024/01/18 03:05:30;;;;;;;3.05;1.50;;;;;;;;;;4753171;30;20579;-96
2024/01/18 03:08:06;;;;;;;2.22;1.38;;;;;;;;;;4737118;30;20128;-95
2024/01/18 03:10:45;;;;;;;4.22;1.55;;;;;;;;;;4759385;30;20119;-96
2024/01/18 03:13:15;;;;;;;2.40;1.50;;;;;;;;;;4759271;30;20054;-96
2024/01/18 03:15:53;;;;;;;6.28;1.67;;;;;;;;;;4757750;30;20066;-95
2024/01/18 03:18:20;;;;;;;7.15;1.30;;;;;;;;;;4756236;30;20120;-96
2024/01/18 03:20:48;;;;;;;2.00;1.55;;;;;;;;;;4741650;30;20087;-96
2024/01/18 03:23:16;;;;;;;3.72;2.28;;;;;;;;;;4756906;30;20055;-95
2024/01/18 03:25:51;;;;;;;1.83;1.38;;;;;;;;;;4741603;30;20063;-96
2024/01/18 03:28:19;;;;;;;3.40;1.63;;;;;;;;;;4727224;30;20405;-96
2024/01/18 03:30:48;;;;;;;5.90;1.67;;;;;;;;;;4741355;30;20055;-95
2024/01/18 03:33:17;;;;;;;2.25;1.30;;;;;;;;;;4741972;30;20128;-96
2024/01/18 03:35:43;;;;;;;2.17;1.45;;;;;;;;;;4738220;30;20151;-96
2024/01/18 03:38:18;;;;;;;2.95;1.10;;;;;;;;;;4764796;30;20071;-96
2024/01/18 03:40:47;;;;;;;2.35;1.25;;;;;;;;;;4745356;30;20063;-96
2024/01/18 03:43:21;;;;;;;1.92;1.08;;;;;;;;;;4773421;30;20051;-96
2024/01/18 03:45:49;;;;;;;4.07;1.45;;;;;;;;;;4756070;30;20142;-96
2024/01/18 03:48:15;;;;;;;2.05;1.10;;;;;;;;;;4744153;30;20044;-96
2024/01/18 03:50:41;;;;;;;7.10;1.40;;;;;;;;;;4757343;30;20051;-96
2024/01/18 03:53:08;;;;;;;2.50;1.52;;;;;;;;;;4759100;30;20060;-96
2024/01/18 03:55:34;;;;;;;4.72;1.13;;;;;;;;;;4744602;30;20068;-96
2024/01/18 03:58:00;;;;;;;2.75;1.10;;;;;;;;;;4745138;30;20086;-95
2024/01/18 04:00:28;;;;;;;2.55;1.30;;;;;;;;;;4745274;30;20125;-95
2024/01/18 04:02:55;;;;;;;4.00;1.52;;;;;;;;;;4776845;29;20051;-96
2024/01/18 04:05:21;;;;;;;1.92;0.75;;;;;;;;;;4764111;30;20078;-96
2024/01/18 04:07:47;;;;;;;2.72;1.55;;;;;;;;;;4761150;30;20282;-96
2024/01/18 04:10:13;;;;;;;2.35;1.02;;;;;;;;;;4747257;30;20055;-96
2024/01/18 04:12:39;;;;;;;1.00;0.60;;;;;;;;;;4746864;30;20497;-96
2024/01/18 04:15:06;;;;;;;14.23;1.65;;;;;;;;;;4760483;30;20513;-95
2024/01/18 04:17:32;;;;;;;4.50;1.20;;;;;;;;;;4745249;30;20053;-96
2024/01/18 04:19:58;;;;;;;5.13;1.08;;;;;;;;;;4745178;30;20063;-96
2024/01/18 04:22:25;;;;;;;1.58;1.48;;;;;;;;;;4756281;30;20055;-96
2024/01/18 04:24:52;;;;;;;0.93;0.93;;;;;;;;;;4748796;30;20063;-95
2024/01/18 04:27:19;;;;;;;1.45;1.05;;;;;;;;;;4748029;30;20399;-95
2024/01/18 04:29:45;;;;;;;1.08;0.85;;;;;;;;;;4750163;30;20056;-95
2024/01/18 04:32:12;;;;;;;4.55;3.13;;;;;;;;;;4747912;30;20062;-94
2024/01/18 04:34:38;;;;;;;1.30;0.93;;;;;;;;;;4747262;30;20056;-95
2024/01/18 04:37:04;;;;;;;3.42;1.90;;;;;;;;;;4748320;30;20119;-95
2024/01/18 04:39:30;;;;;;;5.93;1.25;;;;;;;;;;4747189;30;20056;-95
2024/01/18 04:41:58;;;;;;;3.70;1.63;;;;;;;;;;4749828;30;20166;-96
2024/01/18 04:44:24;;;;;;;3.38;1.00;;;;;;;;;;4761995;30;20533;-96
2024/01/18 04:46:50;;;;;;;4.13;1.63;;;;;;;;;;4765483;30;20059;-95
2024/01/18 04:49:16;;;;;;;3.00;1.17;;;;;;;;;;4763851;30;20051;-94
2024/01/18 04:51:42;;;;;;;4.53;1.58;;;;;;;;;;4749521;30;20070;-95
2024/01/18 04:54:09;;;;;;;3.22;1.25;;;;;;;;;;4751301;30;20074;-96
2024/01/18 04:56:37;;;;;;;1.02;0.90;;;;;;;;;;4765692;30;20494;-95
2024/01/18 04:59:03;;;;;;;0.75;0.75;;;;;;;;;;4749816;30;20064;-95
2024/01/18 05:01:30;;;;;;;6.65;1.05;;;;;;;;;;4746561;30;20056;-94
2024/01/18 05:03:56;;;;;;;3.28;1.00;;;;;;;;;;4760359;30;20060;-94
2024/01/18 05:06:25;;;;;;;1.05;1.00;;;;;;;;;;4751655;30;20051;-93
2024/01/18 05:08:51;;;;;;;1.05;0.70;;;;;;;;;;4764299;30;20051;-93
2024/01/18 05:11:17;;;;;;;3.75;0.93;;;;;;;;;;4763817;30;20142;-94
2024/01/18 05:13:44;;;;;;;3.60;1.00;;;;;;;;;;4762316;30;20134;-94
2024/01/18 05:17:07;;;;;;;7.38;1.75;;;;;;;;;;4750896;30;20062;-96
2024/01/18 05:19:21;;;;;;;2.33;0.98;;;;;;;;;;4744018;30;20060;-93
2024/01/18 05:21:47;;;;;;;2.70;1.80;;;;;;;;;;4744395;30;20462;-94
2024/01/18 05:24:13;;;;;;;3.78;1.27;;;;;;;;;;4756308;30;20048;-96
2024/01/18 05:26:43;;;;;;;4.80;1.70;;;;;;;;;;4786869;30;20433;-96
2024/01/18 05:29:09;;;;;;;3.22;1.00;;;;;;;;;;4886763;24;20917;-94
2024/01/18 05:31:35;;;;;;;2.40;1.20;;;;;;;;;;4771002;30;20067;-93
2024/01/18 05:34:01;;;;;;;4.88;1.13;;;;;;;;;;4789845;30;20063;-94
2024/01/18 05:36:27;;;;;;;2.00;1.30;;;;;;;;;;4793515;29;20043;-93
2024/01/18 05:38:53;;;;;;;1.75;0.73;;;;;;;;;;4784306;30;20063;-94
2024/01/18 05:41:19;;;;;;;1.38;0.80;;;;;;;;;;4778750;30;20056;-95
2024/01/18 05:44:25;;;;;;;1.50;1.08;;;-0.90;99.90;;;;;;4784279;30;20071;-92
2024/01/18 05:50:14;;;;;;;2.75;1.55;;;;;;;;;;4776087;30;20059;-93
2024/01/18 05:52:41;;;;;;;2.53;0.90;;;;;;;;;;4771988;30;20540;-93
2024/01/18 05:55:07;;;;;;;3.63;0.90;;;;;;;;;;4771975;30;20059;-94
2024/01/18 05:57:37;;;;;;;1.05;0.80;;;;;;;;;;4772737;30;20055;-92
2024/01/18 06:00:05;;;;;;;5.53;0.85;;;;;;;;;;4770527;29;20063;-92
2024/01/18 06:02:33;;;;;;;5.75;0.98;;;;;;;;;;4781794;30;20554;-92
2024/01/18 06:07:44;;;;;;;1.70;0.90;;;;;;;;;;4783830;30;20115;-92
2024/01/18 06:10:11;;;;;;;1.30;1.00;;;;;;;;;;4780905;30;20489;-92
2024/01/18 06:12:39;;;;;;;1.25;1.17;;;;;;;;;;4765018;30;20055;-92
2024/01/18 06:15:06;;;;;;;1.02;0.73;;;;;;;;;;4791525;30;20066;-92
2024/01/18 06:17:33;;;;;;;3.28;0.90;;;;;;;;;;4784561;30;20052;-90
2024/01/18 06:20:01;;;;;;;3.80;1.23;;;;;;;;;;4795161;30;20062;-93
2024/01/18 06:43:03;;;;;;;2.15;0.65;;;;;;;;;;5766706;24;20034;31
2024/01/18 08:24:17;;;;;;;2.25;0.95;;;0.00;99.90;;;;;;5198493;24;20480;31
2024/01/18 08:36:13;;;;;;;7.82;1.92;;;;;;;;;;4771726;30;20063;-93
2024/01/18 10:12:59;;;;;;;;;;;;;;;;;;;;;
2024/01/18 10:16:01;;;;;;;4.97;1.75;;;;;;;;;;4783583;30;20059;-96
2024/01/18 10:18:30;;;;;;;3.67;1.30;;;;;;;;;;4751776;30;20066;-94
2024/01/18 10:20:59;;;;;;;2.33;1.40;;;;;;;;;;4768762;30;20060;-94
2024/01/18 10:23:32;;;;;;;3.60;1.60;;;;;;;;;;4777857;30;20116;-94
2024/01/18 10:26:05;;;;;;;5.05;2.00;;;;;;;;;;4784424;30;20122;-94
2024/01/18 10:28:37;;;;;;;1.70;1.60;;;;;;;;;;4781628;30;20079;-93
2024/01/18 10:31:04;;;;;;;2.05;1.58;;;;;;;;;;4781536;30;20060;-93
2024/01/18 10:33:30;;;;;;;3.75;1.65;;;;;;;;;;4764141;30;20055;-93
2024/01/18 10:36:05;;;;;;;8.75;1.60;;;;;;;;;;4771131;30;20478;-92
2024/01/18 10:38:35;;;;;;;2.47;1.63;;;;;;;;;;4753789;30;20071;-93
2024/01/18 10:41:03;;;;;;;5.85;1.50;;;;;;;;;;4752731;30;20048;-91
2024/01/18 10:43:33;;;;;;;7.03;1.85;;;;;;;;;;4750638;30;20055;-92
2024/01/18 10:45:59;;;;;;;2.55;1.50;;;;;;;;;;4764358;30;20059;-94
2024/01/18 10:48:26;;;;;;;3.17;1.50;;;;;;;;;;4749090;30;20055;-95
2024/01/18 10:50:56;;;;;;;4.47;1.60;;;;;;;;;;4761402;30;20059;-93
2024/01/18 10:53:24;;;;;;;3.45;1.40;;;;;;;;;;4760855;30;20055;-94
2024/01/18 10:55:51;;;;;;;7.13;1.65;;;;;;;;;;4758493;30;20126;-93
2024/01/18 10:58:17;;;;;;;4.10;1.50;;;;;;;;;;4756444;30;20063;-92
2024/01/18 11:00:49;;;;;;;5.68;1.98;;;;;;;;;;4770398;30;20056;-93
2024/01/18 11:03:16;;;;;;;2.88;1.95;;;;;;;;;;4756280;30;20087;-93
2024/01/18 11:05:45;;;;;;;5.13;1.75;;;;;;;;;;4755922;30;20051;-93
2024/01/18 11:08:12;;;;;;;7.75;1.30;;;;;;;;;;4756013;30;20575;-94
2024/01/18 11:10:38;;;;;;;7.22;1.50;;;;;;;;;;4754518;30;20052;-93
2024/01/18 11:13:10;;;;;;;4.88;1.45;;;;;;;;;;4756237;30;20102;-94
2024/01/18 11:15:48;;;;;;;1.92;1.55;;;;;;;;;;4755585;30;20506;-93
2024/01/18 11:18:21;;;;;;;1.52;1.20;;;;;;;;;;4741780;30;20067;-94
2024/01/18 11:21:15;;;;;;;5.63;1.60;;;;;;;;;;4751890;30;20052;-92
2024/01/18 11:23:41;;;;;;;4.07;1.48;;;;;;;;;;4727299;30;20573;-94
2024/01/18 11:26:21;;;;;;;4.72;1.60;;;;;;;;;;4732241;30;20048;-94
2024/01/18 11:28:47;;;;;;;2.10;1.35;;;;;;;;;;4719424;30;20056;-94
2024/01/18 11:31:19;;;;;;;2.60;1.25;;;;;;;;;;4729164;30;20048;-94
2024/01/18 11:33:49;;;;;;;5.72;1.20;;;;;;;;;;4737082;30;20510;-94
2024/01/18 11:36:15;;;;;;;8.23;1.40;;;;;;;;;;4709285;30;20095;-94
2024/01/18 11:38:45;;;;;;;1.73;1.15;;;;;;;;;;4708884;30;20064;-94
2024/01/18 11:41:19;;;;;;;4.80;1.58;;;;;;;;;;4708277;30;20056;-95
2024/01/18 11:43:56;;;;;;;1.95;0.98;;;;;;;;;;4723056;30;20515;-96
2024/01/18 11:46:35;;;;;;;4.45;1.42;;;;;;;;;;4717088;30;20468;-95
2024/01/18 11:49:05;;;;;;;4.35;1.30;;;;;;;;;;4717216;30;20089;-96
2024/01/18 11:51:31;;;;;;;10.65;1.77;;;;;;;;;;4736601;30;20052;-94
2024/01/18 11:54:04;;;;;;;2.80;1.27;;;;;;;;;;4753394;30;20052;-96
2024/01/18 11:56:45;;;;;;;1.45;1.00;;;;;;;;;;4752390;30;20048;-95
2024/01/18 11:59:14;;;;;;;6.38;1.40;;;;;;;;;;4747703;30;20129;-96
2024/01/18 12:01:45;;;;;;;3.13;0.77;;;;;;;;;;4753686;30;20056;-96
2024/01/18 12:04:35;;;;;;;1.88;1.10;;;;;;;;;;4754486;30;20056;-96
2024/01/18 12:07:03;;;;;;;11.70;2.00;;;;;;;;;;4743715;30;20059;-96
2024/01/18 12:09:35;;;;;;;9.50;1.35;;;;;;;;;;4745552;30;20186;-94
2024/01/18 12:12:14;;;;;;;7.93;1.65;;;;;;;;;;4741951;30;20060;-95
2024/01/18 12:14:44;;;;;;;5.22;1.33;;;;;;;;;;4750410;30;20056;-96
2024/01/18 12:17:14;;;;;;;3.03;1.48;;;;;;;;;;4741259;30;20094;-95
2024/01/18 12:19:53;;;;;;;7.97;1.45;;;;;;;;;;4739709;30;20359;-95
2024/01/18 12:22:25;;;;;;;3.53;1.48;;;;;;;;;;4754627;30;20105;-94
2024/01/18 12:25:00;;;;;;;1.38;1.20;;;;;;;;;;4755126;30;20094;-95
2024/01/18 12:27:29;;;;;;;6.13;1.27;;;;;;;;;;4755790;30;20086;-95
2024/01/18 12:29:56;;;;;;;2.35;1.40;;;;;;;;;;4758424;30;20056;-95
2024/01/18 12:32:28;;;;;;;7.72;1.55;;;;;;;;;;4768609;24;20079;-94
2024/01/18 12:35:27;;;;;;;1.40;0.95;;;;;;;;;;4781734;30;20056;-94
2024/01/18 12:37:59;;;;;;;6.50;1.40;;;;;;;;;;4748775;30;20073;-94
2024/01/18 12:40:34;;;;;;;6.25;1.08;;;;;;;;;;4765580;30;20054;-93
2024/01/18 12:45:35;;;;;;;4.28;1.75;;;;;;;;;;4824936;24;20058;-93
2024/01/18 12:48:08;;;;;;;4.50;1.38;;;;;;;;;;4772376;30;20080;-93
2024/01/18 12:50:59;;;;;;;3.75;1.05;;;;;;;;;;4734178;30;20080;-93
2024/01/18 12:53:26;;;;;;;3.75;1.20;;;;;;;;;;4721319;30;20061;-93
2024/01/18 12:55:56;;;;;;;7.68;1.23;;;;;;;;;;4770251;30;20077;-92
2024/01/18 12:58:25;;;;;;;5.22;1.40;;;;;;;;;;4777730;29;20032;-91
2024/01/18 13:00:57;;;;;;;8.75;1.33;;;;;;;;;;4762912;30;20101;-92
2024/01/18 13:03:43;;;;;;;3.08;1.17;;;;;;;;;;4806805;24;20066;-94
2024/01/18 13:06:15;;;;;;;1.90;0.90;;;;;;;;;;4794040;30;20035;-92
2024/01/18 13:08:56;;;;;;;3.78;0.88;;;;;;;;;;4792646;30;20070;-92
2024/01/18 13:11:23;;;;;;;1.95;1.00;;;;;;;;;;4770659;30;20055;-94
2024/01/18 13:14:03;;;;;;;4.07;1.27;;;;;;;;;;4774671;30;20180;-94
2024/01/18 13:16:36;;;;;;;1.45;0.80;;;;;;;;;;4777288;30;20042;-94
2024/01/18 13:19:03;;;;;;;0.75;0.75;;;;;;;;;;4766345;30;20091;-96
2024/01/18 13:21:29;;;;;;;2.20;1.38;;;;;;;;;;4782429;30;20457;-96
2024/01/18 13:23:59;;;;;;;5.07;1.02;;;;;;;;;;4778112;30;20059;-96
2024/01/18 13:26:25;;;;;;;4.03;1.33;;;;;;;;;;4777347;30;20059;-95
2024/01/18 13:28:51;;;;;;;8.00;1.08;;;;;;;;;;4765384;30;20056;-96
2024/01/18 13:31:18;;;;;;;2.90;1.20;;;;;;;;;;4756178;30;20055;-96
2024/01/18 13:33:44;;;;;;;3.20;1.20;;;;;;;;;;4755512;30;20060;-96
2024/01/18 13:36:10;;;;;;;1.98;0.93;;;;;;;;;;4753381;30;20056;-94
2024/01/18 13:38:37;;;;;;;7.25;1.20;;;;;;;;;;4757839;30;20103;-93
2024/01/18 13:41:03;;;;;;;1.77;1.13;;;;;;;;;;4757996;30;20056;-93
2024/01/18 13:43:29;;;;;;;2.42;1.10;;;;;;;;;;4757269;30;20060;-93
2024/01/18 13:45:56;;;;;;;5.22;0.90;;;;;;;;;;4767530;30;20464;-94
2024/01/18 13:48:22;;;;;;;2.10;0.90;;;;;;;;;;4774379;30;20070;-94
2024/01/18 13:50:49;;;;;;;3.80;1.20;;;;;;;;;;4773582;30;20067;-94
2024/01/18 13:53:18;;;;;;;7.35;1.42;;;;;;;;;;4771831;30;20379;-95
2024/01/18 13:55:45;;;;;;;1.20;0.73;;;;;;;;;;4772671;30;20063;-94
2024/01/18 13:58:11;;;;;;;3.85;1.27;;;;;;;;;;4772368;30;20051;-93
2024/01/18 14:00:38;;;;;;;1.17;0.85;;;;;;;;;;4760723;30;20499;-93
2024/01/18 14:03:08;;;;;;;9.45;1.30;;;;;;;;;;4765374;30;20097;-93
2024/01/18 14:05:34;;;;;;;2.72;0.95;;;;;;;;;;4786162;30;20063;-94
2024/01/18 14:08:01;;;;;;;1.02;0.90;;;;;;;;;;4756316;30;20059;-93
2024/01/18 14:10:31;;;;;;;4.15;1.17;;;;;;;;;;4757944;30;20081;-93
2024/01/18 14:12:57;;;;;;;2.70;0.88;;;;;;;;;;4771097;30;20047;-94
2024/01/18 14:15:24;;;;;;;2.58;0.77;;;;;;;;;;4771627;30;20056;-94
2024/01/18 14:17:50;;;;;;;1.77;1.27;;;;;;;;;;4756365;30;20056;-93
2024/01/18 14:20:16;;;;;;;1.42;1.13;;;;;;;;;;4771429;30;20140;-93
2024/01/18 14:22:45;;;;;;;3.53;1.33;;;;;;;;;;4771030;30;20051;-93
2024/01/18 14:25:12;;;;;;;0.90;0.75;;;;;;;;;;4760515;30;20060;-93
2024/01/18 14:27:39;;;;;;;1.58;0.88;;;;;;;;;;4753376;30;20521;-94
2024/01/18 14:30:07;;;;;;;0.70;0.70;;;;;;;;;;4753324;30;20056;-91
2024/01/18 14:32:36;;;;;;;1.80;0.88;;;;;;;;;;4753521;30;20086;-92
2024/01/18 14:35:02;;;;;;;1.63;0.90;;;;;;;;;;4755892;30;20147;-93
2024/01/18 14:37:29;;;;;;;2.08;0.85;;;;;;;;;;4756211;30;20048;-92
2024/01/18 14:39:55;;;;;;;3.70;0.93;;;;;;;;;;4756089;30;20051;-92
2024/01/18 14:42:21;;;;;;;1.73;1.20;;;;;;;;;;4755617;30;20051;-92
2024/01/18 14:44:48;;;;;;;1.38;1.25;;;;;;;;;;4755756;30;20506;-92
2024/01/18 14:47:22;;;;;;;1.65;1.05;;;;;;;;;;4755739;30;20056;-93
2024/01/18 14:49:48;;;;;;;4.65;0.80;;;;;;;;;;4770382;30;20064;-92
2024/01/18 14:52:15;;;;;;;3.60;1.23;;;;;;;;;;4746645;30;20114;-92
2024/01/18 14:54:44;;;;;;;1.75;1.00;;;;;;;;;;4752759;30;20060;-92
2024/01/18 14:57:10;;;;;;;1.13;0.80;;;;;;;;;;4739233;30;20048;-93
2024/01/18 14:59:37;;;;;;;4.00;0.95;;;;;;;;;;4753089;30;20072;-94
2024/01/18 15:02:04;;;;;;;2.97;0.82;;;;;;;;;;4753095;30;20060;-93
2024/01/18 15:04:30;;;;;;;5.57;1.55;;;;;;;;;;4765533;30;20056;-92
2024/01/18 15:06:56;;;;;;;5.68;1.83;;;;;;;;;;4755394;30;20430;-91
2024/01/18 15:09:25;;;;;;;6.60;2.13;;;;;;;;;;4755454;30;20055;-94
2024/01/18 15:11:51;;;;;;;5.28;2.22;;;;;;;;;;4770247;30;20052;-94
2024/01/18 15:14:18;;;;;;;4.68;2.40;;;;;;;;;;4760615;30;20529;-93
2024/01/18 15:16:44;;;;;;;7.93;2.90;;;;;;;;;;4755374;30;20055;-92
2024/01/18 15:19:10;;;;;;;8.68;3.40;;;;;;;;;;4770582;30;20083;-93
2024/01/18 15:21:36;;;;;;;7.47;2.60;;;;;;;;;;4770074;30;20051;-93
2024/01/18 15:24:02;;;;;;;7.30;2.08;;;;;;;;;;4769731;30;20102;-92
2024/01/18 15:26:30;;;;;;;3.00;2.50;;;;;;;;;;4755649;30;20051;-91
2024/01/18 15:28:56;;;;;;;4.60;1.75;;;;;;;;;;4761759;30;20095;-93
2024/01/18 15:31:29;;;;;;;12.90;3.10;;;;;;;;;;4769933;30;20064;-93
2024/01/18 15:33:56;;;;;;;3.92;1.40;;;;;;;;;;4771891;30;20513;-95
2024/01/18 15:36:22;;;;;;;4.97;1.48;;;;;;;;;;4771374;30;20082;-96
2024/01/18 15:38:48;;;;;;;7.70;2.03;;;;;;;;;;4770163;30;20063;-95
2024/01/18 15:41:17;;;;;;;2.78;1.80;;;;;;;;;;4770972;30;20087;-96
2024/01/18 15:43:43;;;;;;;4.60;1.77;;;;;;;;;;4770821;30;20056;-94
2024/01/18 15:46:15;;;;;;;5.28;2.40;;;;;;;;;;4767501;30;20052;-94
2024/01/18 15:48:41;;;;;;;3.38;2.30;;;;;;;;;;4766870;30;20526;-95
2024/01/18 15:51:12;;;;;;;6.38;3.50;;;;;;;;;;4752620;30;20060;-92
2024/01/18 15:53:38;;;;;;;7.75;4.20;;;;;;;;;;4765092;30;20066;-93
2024/01/18 15:56:07;;;;;;;8.07;4.10;;;;;;;;;;4754917;30;20059;-93
2024/01/18 15:58:33;;;;;;;9.98;3.72;;;;;;;;;;4752340;30;20091;-93
2024/01/18 16:01:00;;;;;;;8.80;3.05;;;;;;;;;;4751989;30;20056;-93
2024/01/18 16:03:27;;;;;;;5.28;2.85;;;;;;;;;;4755259;30;20096;-96
2024/01/18 16:05:53;;;;;;;4.45;2.53;;;;;;;;;;4755809;30;20122;-94
2024/01/18 16:08:20;;;;;;;8.23;3.00;;;;;;;;;;4760487;30;20090;-94
2024/01/18 16:10:46;;;;;;;5.18;2.75;;;;;;;;;;4776376;30;20063;-95
2024/01/18 16:13:12;;;;;;;7.72;2.65;;;;;;;;;;4773181;30;20051;-93
2024/01/18 16:15:39;;;;;;;6.90;2.22;;;;;;;;;;4769229;30;20060;-94
2024/01/18 16:18:05;;;;;;;10.20;3.05;;;;;;;;;;4771049;30;20051;-93
2024/01/18 16:20:31;;;;;;;7.18;2.60;;;;;;;;;;4769426;30;20200;-93
2024/01/18 16:22:58;;;;;;;10.80;3.88;;;;;;;;;;4771895;30;20059;-93
2024/01/18 16:25:24;;;;;;;5.78;2.67;;;;;;;;;;4772587;30;20055;-94
2024/01/18 16:27:50;;;;;;;4.63;2.55;;;;;;;;;;4769350;30;20095;-95
2024/01/18 16:30:16;;;;;;;14.10;1.98;;;;;;;;;;4756418;30;20437;-95
2024/01/18 16:32:42;;;;;;;5.25;1.80;;;;;;;;;;4774713;30;20048;-93
2024/01/18 16:35:09;;;;;;;3.72;2.10;;;;;;;;;;4749854;30;20097;-95
2024/01/18 16:37:36;;;;;;;5.18;2.58;;;;;;;;;;4770922;30;20113;-94
2024/01/18 16:40:02;;;;;;;3.88;1.63;;;;;;;;;;4769156;30;20102;-94
2024/01/18 16:42:28;;;;;;;11.50;2.30;;;;;;;;;;4754795;30;20068;-95
2024/01/18 16:44:54;;;;;;;5.60;2.15;;;;;;;;;;4758768;30;20063;-94
2024/01/18 16:47:21;;;;;;;10.45;1.67;;;;;;;;;;4751583;30;20063;-93
2024/01/18 16:49:47;;;;;;;2.25;1.67;;;;;;;;;;4751415;30;20056;-95
2024/01/18 16:52:14;;;;;;;10.05;2.28;;;;;;;;;;4746320;30;20056;-95
2024/01/18 16:54:41;;;;;;;5.13;2.00;;;;;;;;;;4752001;30;20098;-93
2024/01/18 16:57:09;;;;;;;4.68;2.05;;;;;;;;;;4751484;30;20055;-95
2024/01/18 16:59:35;;;;;;;7.45;2.72;;;;;;;;;;4752036;30;20056;-94
2024/01/18 17:02:04;;;;;;;9.65;3.63;;;;;;;;;;4775133;30;20052;-94
2024/01/18 17:04:30;;;;;;;6.90;3.22;;;;;;;;;;4755436;30;20069;-94
2024/01/18 17:06:56;;;;;;;19.42;3.40;;;;;;;;;;4738615;30;20065;-93
2024/01/18 17:09:23;;;;;;;4.28;2.90;;;;;;;;;;4750293;30;20111;-94
2024/01/18 17:11:51;;;;;;;10.32;3.10;;;;;;;;;;4770714;30;20510;-94
2024/01/18 17:14:17;;;;;;;6.88;2.55;;;;;;;;;;4761398;30;20057;-94
2024/01/18 17:16:45;;;;;;;5.70;2.78;;;;;;;;;;4775878;30;20051;-94
2024/01/18 17:19:11;;;;;;;8.07;2.85;;;;;;;;;;4761640;30;20050;-95
2024/01/18 17:21:40;;;;;;;3.50;2.70;;;;;;;;;;4758163;30;20058;-94
2024/01/18 17:24:12;;;;;;;6.90;2.33;;;;;;;;;;4770303;30;20055;-93
2024/01/18 17:29:27;;;;;;;3.05;2.05;;;;;;;;;;4776384;30;20063;-93
2024/01/18 17:31:56;;;;;;;4.03;1.90;;;;;;;;;;4762591;30;20570;-94
2024/01/18 17:34:22;;;;;;;5.70;3.05;;;;;;;;;;4758353;30;20051;-95
2024/01/18 17:36:49;;;;;;;5.93;2.20;;;;;;;;;;4763965;30;20051;-96
2024/01/18 17:39:18;;;;;;;4.68;2.65;;;;;;;;;;4768418;30;20052;-96
2024/01/18 17:41:45;;;;;;;7.00;2.80;;;;;;;;;;4774565;30;20056;-95
2024/01/18 17:44:11;;;;;;;2.95;2.03;;;;;;;;;;4762949;30;20059;-95
2024/01/18 17:46:37;;;;;;;4.55;2.08;;;;;;;;;;4776699;30;20063;-94
2024/01/18 17:49:06;;;;;;;4.22;3.17;;;;;;;;;;4756695;30;20064;-95
2024/01/18 17:51:33;;;;;;;10.93;3.05;;;;;;;;;;4754947;30;20465;-94
2024/01/18 17:53:59;;;;;;;5.50;3.15;;;;;;;;;;4762402;30;20067;-94
2024/01/18 17:56:25;;;;;;;5.75;2.85;;;;;;;;;;4752625;30;20062;-95
2024/01/18 17:58:51;;;;;;;10.43;2.90;;;;;;;;;;4744018;30;20097;-96
2024/01/18 18:01:18;;;;;;;6.25;2.88;;;;;;;;;;4762194;30;20143;-95
2024/01/18 18:03:44;;;;;;;5.20;2.65;;;;;;;;;;4773292;30;20097;-95
2024/01/18 18:06:10;;;;;;;8.35;3.22;;;;;;;;;;4762019;30;20195;-95
2024/01/18 18:08:37;;;;;;;9.40;2.83;;;;;;;;;;4784239;30;20047;-95
2024/01/18 18:11:04;;;;;;;6.03;2.75;;;;;;;;;;4750280;30;20066;-94
2024/01/18 18:13:32;;;;;;;7.13;3.20;;;;;;;;;;4766336;30;20050;-95
2024/01/18 18:15:59;;;;;;;6.43;3.10;;;;;;;;;;4767782;30;20170;-94
2024/01/18 18:18:28;;;;;;;8.43;2.95;;;;;;;;;;4781641;30;20060;-94
2024/01/18 18:20:56;;;;;;;10.00;2.83;;;;;;;;;;4775197;30;20052;-95
2024/01/18 18:23:25;;;;;;;6.68;2.67;;;;;;;;;;4777044;29;20117;-95
2024/01/18 18:25:56;;;;;;;14.00;3.03;;;;;;;;;;4770825;29;20051;-94
2024/01/18 18:28:36;;;;;;;6.55;2.00;;;;;;;;;;4765145;30;20058;-95
2024/01/18 18:31:05;;;;;;;7.32;2.60;;;;;;;;;;4760035;30;20063;-96
2024/01/18 18:33:42;;;;;;;7.80;3.05;;;;;;;;;;4763126;30;20103;-96
2024/01/18 18:39:20;;;;;;;5.55;2.10;;;;;;;;;;4780532;30;20093;-95
2024/01/18 18:41:54;;;;;;;8.13;3.38;;;;;;;;;;4777427;30;20092;-95
2024/01/18 18:45:24;;;;;;;;;;;;;;;;;;;;;
2024/01/18 18:48:31;;;;;;;;;;;;;;;;;;;;;
2024/01/18 22:10:09;;;;;;;4.43;1.77;;;;;;;;;;2066374;24;20319;31
2024/01/18 22:12:40;;;;;;;5.32;2.20;;;;;;;;;;4706288;30;20079;-93
2024/01/18 22:15:09;;;;;;;3.30;2.00;;;;;;;;;;4707979;30;20135;-95
2024/01/18 22:17:40;;;;;;;4.13;1.85;;;;;;;;;;4721930;30;20633;-93
2024/01/18 22:20:13;;;;;;;3.33;1.90;;;;;;;;;;4692705;30;20056;-94